createdAt,value
2022-12-04T00:01:30.892Z,92.66
2022-12-04T00:04:01.672Z,91.99
2022-12-04T00:06:30.714Z,92.99
2022-12-04T00:08:59.256Z,92.35
2022-12-04T00:11:30.985Z,92.20
2022-12-04T00:14:06.492Z,91.58
2022-12-04T00:16:35.639Z,90.85
2022-12-04T00:19:04.268Z,91.15
2022-12-04T00:21:33.355Z,90.68
2022-12-04T00:24:01.727Z,88.76
2022-12-04T00:26:32.179Z,88.63
2022-12-04T00:29:01.046Z,89.81
2022-12-04T00:31:31.881Z,88.11
2022-12-04T00:34:00.818Z,86.63
2022-12-04T00:36:31.503Z,87.01
2022-12-04T00:39:01.758Z,86.19
2022-12-04T00:41:32.309Z,86.28
2022-12-04T00:44:04.630Z,85.53
2022-12-04T00:46:33.145Z,85.39
2022-12-04T00:49:03.497Z,84.89
2022-12-04T00:51:32.183Z,85.26
2022-12-04T00:54:00.555Z,84.38
2022-12-04T00:56:30.611Z,84.29
2022-12-04T00:59:01.799Z,84.00
2022-12-04T01:01:31.317Z,83.91
2022-12-04T01:03:59.910Z,84.47
2022-12-04T01:06:31.871Z,84.88
2022-12-04T01:09:01.268Z,84.81
2022-12-04T01:11:31.681Z,85.06
2022-12-04T01:14:01.145Z,84.29
2022-12-04T01:16:34.256Z,84.93
2022-12-04T01:19:03.347Z,84.12
2022-12-04T01:21:31.749Z,83.80
2022-12-04T01:24:00.672Z,83.03
2022-12-04T01:26:29.476Z,82.91
2022-12-04T01:28:57.770Z,82.74
2022-12-04T01:31:26.917Z,82.90
2022-12-04T01:33:55.547Z,82.06
2022-12-04T01:36:26.633Z,82.37
2022-12-04T01:38:55.375Z,82.42
2022-12-04T01:41:26.399Z,81.58
2022-12-04T01:44:16.323Z,81.41
2022-12-04T01:47:04.934Z,81.73
2022-12-04T01:49:46.341Z,81.11
2022-12-04T01:52:20.562Z,80.73
2022-12-04T01:54:58.193Z,79.67
2022-12-04T01:57:32.283Z,79.76
2022-12-04T02:00:07.248Z,79.77
2022-12-04T02:02:39.109Z,79.30
2022-12-04T02:05:10.238Z,79.54
2022-12-04T02:07:40.508Z,79.21
2022-12-04T02:10:10.744Z,78.80
2022-12-04T02:13:03.396Z,79.66
2022-12-04T02:15:49.651Z,78.47
2022-12-04T02:18:50.759Z,78.41
2022-12-04T02:21:37.531Z,78.63
2022-12-04T02:24:22.697Z,77.54
2022-12-04T02:26:59.536Z,77.84
2022-12-04T02:30:09.082Z,77.08
2022-12-04T02:33:04.760Z,77.52
2022-12-04T02:35:41.331Z,76.88
2022-12-04T02:38:18.240Z,76.75
2022-12-04T02:41:00.848Z,76.20
2022-12-04T02:43:53.748Z,76.34
2022-12-04T02:46:33.138Z,76.02
2022-12-04T02:49:06.357Z,76.52
2022-12-04T02:51:37.922Z,76.35
2022-12-04T02:54:23.685Z,75.54
2022-12-04T02:56:54.528Z,75.35
2022-12-04T02:59:33.646Z,75.75
2022-12-04T03:02:07.658Z,75.00
2022-12-04T03:04:39.210Z,75.22
2022-12-04T03:07:15.111Z,75.48
2022-12-04T03:09:48.213Z,75.20
2022-12-04T03:12:31.794Z,74.21
2022-12-04T03:15:06.123Z,73.37
2022-12-04T03:18:08.009Z,73.94
2022-12-04T03:20:39.479Z,74.87
2022-12-04T03:23:17.549Z,74.66
2022-12-04T03:26:02.825Z,73.93
2022-12-04T03:28:43.860Z,74.10
2022-12-04T03:31:13.154Z,72.18
2022-12-04T03:33:46.466Z,71.80
2022-12-04T03:36:29.463Z,72.14
2022-12-04T03:39:09.586Z,72.64
2022-12-04T03:41:59.246Z,71.29
2022-12-04T03:44:40.501Z,72.32
2022-12-04T03:47:24.391Z,71.40
2022-12-04T03:50:24.234Z,70.51
2022-12-04T03:53:18.566Z,69.34
2022-12-04T03:56:14.425Z,69.43
2022-12-04T03:58:50.885Z,70.99
2022-12-04T04:01:25.312Z,69.69
2022-12-04T04:03:57.419Z,69.06
2022-12-04T04:06:35.928Z,68.97
2022-12-04T04:09:10.160Z,67.02
2022-12-04T04:12:03.040Z,70.46
2022-12-04T04:15:06.957Z,69.29
2022-12-04T04:18:09.705Z,68.91
2022-12-04T04:21:15.198Z,69.62
2022-12-04T04:24:05.602Z,68.71
2022-12-04T04:26:40.891Z,69.40
2022-12-04T04:29:10.734Z,68.67
2022-12-04T04:31:55.390Z,68.52
2022-12-04T04:34:34.674Z,69.15
2022-12-04T04:37:21.076Z,69.47
2022-12-04T04:40:10.526Z,68.49
2022-12-04T04:42:50.641Z,67.77
2022-12-04T04:45:41.010Z,68.02
2022-12-04T04:48:15.778Z,68.96
2022-12-04T04:50:45.488Z,68.28
2022-12-04T04:53:30.767Z,68.13
2022-12-04T04:56:00.708Z,67.19
2022-12-04T04:58:29.054Z,68.86
2022-12-04T05:01:30.110Z,68.61
2022-12-04T05:03:58.444Z,67.73
2022-12-04T05:06:26.773Z,67.41
2022-12-04T05:08:55.112Z,65.58
2022-12-04T05:11:23.446Z,65.81
2022-12-04T05:13:51.830Z,65.91
2022-12-04T05:16:20.518Z,65.38
2022-12-04T05:19:07.213Z,66.03
2022-12-04T05:21:35.737Z,67.15
2022-12-04T05:24:04.158Z,63.44
2022-12-04T05:26:35.071Z,64.66
2022-12-04T05:29:03.387Z,64.25
2022-12-04T05:31:31.867Z,64.18
2022-12-04T05:34:00.256Z,66.29
2022-12-04T05:36:28.596Z,64.46
2022-12-04T05:38:56.913Z,63.61
2022-12-04T05:41:25.627Z,62.35
2022-12-04T05:43:54.118Z,62.88
2022-12-04T05:46:22.507Z,62.05
2022-12-04T05:48:50.926Z,63.66
2022-12-04T05:51:19.320Z,62.39
2022-12-04T05:53:47.855Z,64.16
2022-12-04T05:56:16.190Z,62.16
2022-12-04T05:58:44.662Z,61.67
2022-12-04T06:01:22.542Z,62.59
2022-12-04T06:03:51.337Z,62.56
2022-12-04T06:06:25.410Z,62.86
2022-12-04T06:08:57.192Z,63.14
2022-12-04T06:11:34.362Z,62.56
2022-12-04T06:14:04.495Z,61.54
2022-12-04T06:16:38.463Z,62.20
2022-12-04T06:19:10.345Z,61.53
2022-12-04T06:21:41.398Z,60.15
2022-12-04T06:24:12.162Z,60.62
2022-12-04T06:26:57.435Z,62.88
2022-12-04T06:29:28.839Z,61.47
2022-12-04T06:31:57.213Z,61.67
2022-12-04T06:34:25.638Z,60.17
2022-12-04T06:36:55.181Z,61.47
2022-12-04T06:39:23.639Z,61.44
2022-12-04T06:41:51.999Z,61.95
2022-12-04T06:44:20.312Z,61.53
2022-12-04T06:46:50.727Z,60.32
2022-12-04T06:49:23.579Z,60.97
2022-12-04T06:51:51.996Z,59.79
2022-12-04T06:54:20.386Z,60.58
2022-12-04T06:56:51.018Z,61.00
2022-12-04T06:59:19.384Z,61.15
2022-12-04T07:01:47.737Z,61.10
2022-12-04T07:04:16.133Z,61.28
2022-12-04T07:06:44.528Z,61.21
2022-12-04T07:09:17.920Z,60.69
2022-12-04T07:11:46.903Z,59.95
2022-12-04T07:14:15.958Z,60.48
2022-12-04T07:16:44.831Z,60.92
2022-12-04T07:19:14.940Z,60.98
2022-12-04T07:21:44.682Z,60.64
2022-12-04T07:24:19.386Z,61.19
2022-12-04T07:26:47.937Z,60.11
2022-12-04T07:29:16.313Z,59.46
2022-12-04T07:31:45.509Z,60.17
2022-12-04T07:34:14.155Z,60.36
2022-12-04T07:36:42.524Z,60.94
2022-12-04T07:39:11.329Z,60.52
2022-12-04T07:41:39.811Z,59.01
2022-12-04T07:44:08.155Z,60.10
2022-12-04T07:46:36.959Z,60.21
2022-12-04T07:49:05.456Z,59.62
2022-12-04T07:51:33.829Z,59.45
2022-12-04T07:54:04.092Z,60.35
2022-12-04T07:56:34.415Z,61.76
2022-12-04T07:59:03.197Z,59.88
2022-12-04T08:01:32.656Z,60.38
2022-12-04T08:04:02.084Z,58.85
2022-12-04T08:06:33.616Z,59.47
2022-12-04T08:09:07.774Z,59.56
2022-12-04T08:11:38.041Z,59.13
2022-12-04T08:14:09.741Z,61.32
2022-12-04T08:16:38.555Z,61.34
2022-12-04T08:19:07.145Z,60.55
2022-12-04T08:21:35.839Z,60.79
2022-12-04T08:24:04.607Z,61.12
2022-12-04T08:26:34.592Z,59.68
2022-12-04T08:29:03.913Z,59.57
2022-12-04T08:31:34.198Z,61.35
2022-12-04T08:34:05.105Z,60.01
2022-12-04T08:36:34.378Z,60.74
2022-12-04T08:39:02.844Z,60.80
2022-12-04T08:41:31.255Z,61.22
2022-12-04T08:44:00.098Z,60.27
2022-12-04T08:46:29.716Z,60.42
2022-12-04T08:48:58.784Z,60.08
2022-12-04T08:51:30.514Z,60.17
2022-12-04T08:54:01.070Z,61.11
2022-12-04T08:56:30.902Z,60.25
2022-12-04T08:59:00.469Z,60.31
2022-12-04T09:01:30.645Z,61.58
2022-12-04T09:03:59.392Z,61.52
2022-12-04T09:06:28.068Z,60.89
2022-12-04T09:08:57.992Z,61.12
2022-12-04T09:11:28.797Z,60.37
2022-12-04T09:13:57.379Z,61.32
2022-12-04T09:16:27.296Z,60.69
2022-12-04T09:18:56.514Z,61.31
2022-12-04T09:21:26.137Z,61.16
2022-12-04T09:23:54.554Z,61.30
2022-12-04T09:26:32.102Z,60.95
2022-12-04T09:29:02.404Z,61.09
2022-12-04T09:31:31.613Z,61.93
2022-12-04T09:34:01.212Z,61.31
2022-12-04T09:36:30.137Z,61.78
2022-12-04T09:38:59.661Z,62.27
2022-12-04T09:42:12.929Z,62.01
2022-12-04T09:44:48.228Z,61.48
2022-12-04T09:47:53.804Z,62.26
2022-12-04T09:50:38.071Z,61.36
2022-12-04T09:53:28.953Z,62.61
2022-12-04T09:56:04.188Z,63.15
2022-12-04T09:58:50.898Z,62.97
2022-12-04T10:01:56.173Z,62.80
2022-12-04T10:04:24.805Z,62.38
2022-12-04T10:07:10.922Z,63.04
2022-12-04T10:09:53.230Z,62.82
2022-12-04T10:12:41.542Z,62.96
2022-12-04T10:15:40.038Z,63.18
2022-12-04T10:18:26.795Z,63.19
2022-12-04T10:21:09.006Z,63.58
2022-12-04T10:24:09.515Z,62.70
2022-12-04T10:26:45.073Z,63.41
2022-12-04T10:29:37.462Z,63.50
2022-12-04T10:32:38.751Z,63.41
2022-12-04T10:35:21.613Z,63.81
2022-12-04T10:37:58.311Z,63.71
2022-12-04T10:40:41.374Z,64.01
2022-12-04T10:43:39.982Z,64.41
2022-12-04T10:46:16.630Z,64.48
2022-12-04T10:48:48.792Z,64.70
2022-12-04T10:51:22.603Z,65.06
2022-12-04T10:53:52.136Z,65.07
2022-12-04T10:56:26.868Z,65.49
2022-12-04T10:59:04.641Z,65.67
2022-12-04T11:01:37.025Z,66.09
2022-12-04T11:04:09.449Z,65.89
2022-12-04T11:06:37.875Z,65.88
2022-12-04T11:09:06.241Z,65.87
2022-12-04T11:11:36.745Z,66.40
2022-12-04T11:14:15.496Z,66.38
2022-12-04T11:16:49.182Z,66.59
2022-12-04T11:19:26.601Z,67.11
2022-12-04T11:21:57.656Z,67.30
2022-12-04T11:24:35.837Z,67.57
2022-12-04T11:27:06.529Z,68.00
2022-12-04T11:29:45.076Z,67.94
2022-12-04T11:32:34.998Z,67.75
2022-12-04T11:35:13.951Z,67.80
2022-12-04T11:37:45.427Z,68.06
2022-12-04T11:40:20.619Z,68.27
2022-12-04T11:43:11.883Z,68.42
2022-12-04T11:45:40.846Z,68.70
2022-12-04T11:48:19.824Z,68.63
2022-12-04T11:50:52.878Z,69.47
2022-12-04T11:53:37.033Z,69.66
2022-12-04T11:56:24.905Z,69.72
2022-12-04T11:58:56.229Z,69.51
2022-12-04T12:01:41.610Z,69.08
2022-12-04T12:04:46.703Z,69.11
2022-12-04T12:07:40.769Z,69.15
2022-12-04T12:10:15.150Z,69.35
2022-12-04T12:13:30.672Z,69.44
2022-12-04T12:16:01.906Z,69.66
2022-12-04T12:18:39.163Z,70.33
2022-12-04T12:21:23.330Z,71.88
2022-12-04T12:24:16.073Z,72.24
2022-12-04T12:27:11.632Z,73.00
2022-12-04T12:29:54.432Z,72.62
2022-12-04T12:32:34.727Z,73.30
2022-12-04T12:35:04.348Z,72.87
2022-12-04T12:37:49.985Z,73.43
2022-12-04T12:40:41.139Z,73.90
2022-12-04T12:43:17.515Z,73.85
2022-12-04T12:45:57.969Z,74.39
2022-12-04T12:48:44.449Z,74.97
2022-12-04T12:51:31.360Z,75.20
2022-12-04T12:54:10.833Z,75.33
2022-12-04T12:56:49.768Z,75.98
2022-12-04T12:59:26.652Z,76.21
2022-12-04T13:02:26.620Z,76.08
2022-12-04T13:05:00.259Z,77.25
2022-12-04T13:07:37.608Z,76.84
2022-12-04T13:10:17.997Z,76.34
2022-12-04T13:12:56.387Z,76.40
2022-12-04T13:15:30.767Z,76.41
2022-12-04T13:18:00.635Z,77.00
2022-12-04T13:20:36.451Z,77.10
2022-12-04T13:23:58.642Z,77.54
2022-12-04T13:26:52.889Z,77.84
2022-12-04T13:29:58.319Z,77.20
2022-12-04T13:32:54.472Z,77.51
2022-12-04T13:35:47.344Z,77.72
2022-12-04T13:38:41.335Z,77.78
2022-12-04T13:41:19.464Z,78.00
2022-12-04T13:43:50.577Z,78.12
2022-12-04T13:47:03.588Z,78.36
2022-12-04T13:49:38.094Z,78.61
2022-12-04T13:52:21.324Z,78.88
2022-12-04T13:55:00.884Z,79.08
2022-12-04T13:57:29.279Z,79.16
2022-12-04T14:00:25.367Z,79.56
2022-12-04T14:02:56.966Z,80.44
2022-12-04T14:05:32.908Z,81.37
2022-12-04T14:08:24.409Z,81.58
2022-12-04T14:11:08.439Z,81.47
2022-12-04T14:14:01.205Z,81.80
2022-12-04T14:16:44.745Z,81.58
2022-12-04T14:19:36.948Z,81.16
2022-12-04T14:22:06.412Z,80.89
2022-12-04T14:24:38.562Z,80.93
2022-12-04T14:27:35.752Z,80.85
2022-12-04T14:30:05.197Z,81.07
2022-12-04T14:32:36.591Z,81.23
2022-12-04T14:35:05.662Z,80.61
2022-12-04T14:37:41.434Z,80.75
2022-12-04T14:40:24.428Z,81.11
2022-12-04T14:42:53.341Z,81.18
2022-12-04T14:45:39.322Z,81.45
2022-12-04T14:48:36.349Z,80.26
2022-12-04T14:51:58.324Z,81.51
2022-12-04T14:54:46.238Z,81.49
2022-12-04T14:57:39.341Z,80.56
2022-12-04T15:00:20.558Z,80.87
2022-12-04T15:02:51.287Z,81.28
2022-12-04T15:05:31.976Z,81.68
2022-12-04T15:08:07.173Z,79.87
2022-12-04T15:10:55.054Z,80.37
2022-12-04T15:13:38.250Z,80.53
2022-12-04T15:16:18.670Z,81.53
2022-12-04T15:18:58.275Z,81.90
2022-12-04T15:21:40.996Z,81.23
2022-12-04T15:24:24.244Z,81.86
2022-12-04T15:26:55.390Z,81.65
2022-12-04T15:29:31.509Z,81.07
2022-12-04T15:32:04.642Z,80.03
2022-12-04T15:34:43.451Z,81.66
2022-12-04T15:37:22.969Z,82.12
2022-12-04T15:39:52.869Z,82.17
2022-12-04T15:42:29.162Z,82.20
2022-12-04T15:45:03.642Z,81.80
2022-12-04T15:47:34.667Z,82.67
2022-12-04T15:50:14.935Z,82.60
2022-12-04T15:53:09.873Z,82.71
2022-12-04T15:55:50.813Z,82.65
2022-12-04T15:58:30.731Z,82.82
2022-12-04T16:01:00.739Z,83.09
2022-12-04T16:03:34.572Z,83.06
2022-12-04T16:06:23.748Z,83.18
2022-12-04T16:08:57.880Z,83.14
2022-12-04T16:11:35.010Z,83.14
2022-12-04T16:14:06.020Z,82.75
2022-12-04T16:16:34.725Z,82.52
2022-12-04T16:19:09.907Z,82.86
2022-12-04T16:21:38.239Z,83.21
2022-12-04T16:24:08.043Z,83.33
2022-12-04T16:26:36.513Z,84.63
2022-12-04T16:29:05.016Z,85.44
2022-12-04T16:31:33.514Z,85.21
2022-12-04T16:34:01.917Z,85.00
2022-12-04T16:36:30.872Z,85.18
2022-12-04T16:38:59.206Z,85.30
2022-12-04T16:41:27.533Z,85.31
2022-12-04T16:43:59.022Z,85.32
2022-12-04T16:46:29.582Z,86.00
2022-12-04T16:49:01.502Z,86.44
2022-12-04T16:51:32.740Z,86.80
2022-12-04T16:54:01.676Z,87.23
2022-12-04T16:56:30.001Z,87.36
2022-12-04T16:58:58.331Z,87.29
2022-12-04T17:01:30.790Z,87.44
2022-12-04T17:03:59.184Z,87.27
2022-12-04T17:06:27.543Z,87.63
2022-12-04T17:08:55.946Z,87.62
2022-12-04T17:11:24.320Z,87.69
2022-12-04T17:13:52.624Z,87.72
2022-12-04T17:16:21.007Z,87.91
2022-12-04T17:18:49.365Z,88.02
2022-12-04T17:21:17.857Z,87.86
2022-12-04T17:23:46.472Z,88.18
2022-12-04T17:26:16.287Z,87.80
2022-12-04T17:28:45.068Z,88.50
2022-12-04T17:31:19.680Z,88.75
2022-12-04T17:33:48.624Z,89.04
2022-12-04T17:36:20.856Z,88.82
2022-12-04T17:38:53.587Z,89.20
2022-12-04T17:41:22.391Z,89.30
2022-12-04T17:43:51.146Z,88.62
2022-12-04T17:46:22.549Z,88.80
2022-12-04T17:48:51.163Z,88.81
2022-12-04T17:51:21.916Z,89.53
2022-12-04T17:53:50.516Z,89.29
2022-12-04T17:56:22.899Z,89.47
2022-12-04T17:58:52.564Z,89.22
2022-12-04T18:01:26.237Z,89.38
2022-12-04T18:03:57.127Z,89.44
2022-12-04T18:06:35.242Z,89.15
2022-12-04T18:09:04.768Z,89.14
2022-12-04T18:11:34.976Z,89.32
2022-12-04T18:14:12.277Z,89.43
2022-12-04T18:16:47.304Z,89.70
2022-12-04T18:19:16.377Z,90.01
2022-12-04T18:21:44.713Z,90.20
2022-12-04T18:24:13.184Z,89.77
2022-12-04T18:26:44.432Z,90.03
2022-12-04T18:29:15.480Z,90.01
2022-12-04T18:31:43.906Z,90.32
2022-12-04T18:34:13.008Z,90.49
2022-12-04T18:36:42.750Z,90.58
2022-12-04T18:39:15.938Z,90.38
2022-12-04T18:41:45.196Z,90.47
2022-12-04T18:44:13.689Z,90.39
2022-12-04T18:46:42.722Z,90.41
2022-12-04T18:49:15.095Z,90.39
2022-12-04T18:51:49.332Z,90.67
2022-12-04T18:54:23.611Z,90.85
2022-12-04T18:56:52.443Z,90.76
2022-12-04T18:59:23.383Z,90.75
2022-12-04T19:01:52.773Z,90.97
2022-12-04T19:04:24.077Z,90.92
2022-12-04T19:06:57.401Z,90.69
2022-12-04T19:09:47.204Z,91.31
2022-12-04T19:12:16.017Z,91.14
2022-12-04T19:14:44.481Z,90.97
2022-12-04T19:17:12.876Z,90.75
2022-12-04T19:19:41.208Z,90.66
2022-12-04T19:22:09.574Z,90.74
2022-12-04T19:24:37.939Z,91.08
2022-12-04T19:27:12.153Z,91.06
2022-12-04T19:29:42.164Z,90.70
2022-12-04T19:32:11.969Z,90.76
2022-12-04T19:34:41.019Z,91.13
2022-12-04T19:37:09.404Z,91.18
2022-12-04T19:39:38.062Z,91.21
2022-12-04T19:42:06.561Z,90.06
2022-12-04T19:44:50.710Z,90.07
2022-12-04T19:47:19.987Z,89.62
2022-12-04T19:49:48.323Z,90.29
2022-12-04T19:52:17.114Z,90.56
2022-12-04T19:54:45.841Z,91.04
2022-12-04T19:57:15.649Z,90.30
2022-12-04T19:59:46.619Z,90.79
2022-12-04T20:02:16.108Z,90.49
2022-12-04T20:04:44.665Z,90.70
2022-12-04T20:07:13.399Z,90.07
2022-12-04T20:09:43.137Z,89.85
2022-12-04T20:12:13.335Z,91.17
2022-12-04T20:14:41.669Z,90.83
2022-12-04T20:17:10.644Z,91.56
2022-12-04T20:19:39.079Z,91.87
2022-12-04T20:22:07.471Z,92.21
2022-12-04T20:24:35.826Z,91.93
2022-12-04T20:27:04.210Z,91.93
2022-12-04T20:29:32.604Z,91.42
2022-12-04T20:32:00.910Z,91.04
2022-12-04T20:34:29.281Z,91.79
2022-12-04T20:36:58.935Z,92.15
2022-12-04T20:39:27.928Z,91.93
2022-12-04T20:41:56.454Z,92.47
2022-12-04T20:44:24.787Z,92.63
2022-12-04T20:46:54.271Z,92.46
2022-12-04T20:49:22.792Z,92.50
2022-12-04T20:51:53.203Z,92.81
2022-12-04T20:54:23.309Z,93.05
2022-12-04T20:56:53.980Z,92.87
2022-12-04T20:59:24.743Z,92.98
2022-12-04T21:01:53.881Z,93.22
2022-12-04T21:04:23.028Z,93.14
2022-12-04T21:06:51.398Z,93.70
2022-12-04T21:09:25.377Z,93.92
2022-12-04T21:11:55.852Z,94.02
2022-12-04T21:14:52.521Z,93.69
2022-12-04T21:17:21.205Z,93.47
2022-12-04T21:19:51.558Z,93.41
2022-12-04T21:22:20.931Z,93.52
2022-12-04T21:24:49.395Z,93.07
2022-12-04T21:27:21.264Z,93.40
2022-12-04T21:29:50.723Z,92.28
2022-12-04T21:32:21.112Z,92.83
2022-12-04T21:34:50.468Z,93.21
2022-12-04T21:37:19.164Z,92.93
2022-12-04T21:39:47.556Z,93.25
2022-12-04T21:42:35.448Z,92.80
2022-12-04T21:45:07.362Z,92.76
2022-12-04T21:47:36.915Z,92.46
2022-12-04T21:50:06.419Z,93.21
2022-12-04T21:52:34.774Z,93.59
2022-12-04T21:55:03.145Z,93.89
2022-12-04T21:57:31.780Z,94.07
2022-12-04T22:00:00.397Z,93.60
2022-12-04T22:02:28.999Z,93.58
2022-12-04T22:04:57.399Z,94.00
2022-12-04T22:07:25.776Z,93.93
2022-12-04T22:09:54.294Z,93.88
2022-12-04T22:15:11.799Z,93.99
2022-12-04T22:17:40.114Z,94.36
2022-12-04T22:20:09.605Z,94.30
2022-12-04T22:22:38.003Z,94.25
2022-12-04T22:25:06.712Z,93.79
2022-12-04T22:27:35.076Z,94.23
2022-12-04T22:30:04.138Z,93.68
2022-12-04T22:32:32.814Z,93.79
2022-12-04T22:35:01.149Z,93.61
2022-12-04T22:37:29.513Z,93.29
2022-12-04T22:39:58.191Z,93.78
2022-12-04T22:42:26.854Z,93.07
2022-12-04T22:44:55.194Z,92.55
2022-12-04T22:47:23.537Z,93.49
2022-12-04T22:49:52.181Z,93.72
2022-12-04T22:52:20.666Z,93.33
2022-12-04T22:54:52.169Z,93.51
2022-12-04T22:57:20.572Z,93.47
2022-12-04T22:59:48.904Z,94.17
2022-12-04T23:02:17.220Z,94.04
2022-12-04T23:04:45.597Z,93.99
2022-12-04T23:07:13.970Z,94.35
2022-12-04T23:09:42.364Z,93.77
2022-12-04T23:12:11.118Z,93.68
2022-12-04T23:14:39.440Z,94.05
2022-12-04T23:17:07.895Z,93.87
2022-12-04T23:19:36.338Z,94.06
2022-12-04T23:22:04.674Z,93.34
2022-12-04T23:24:34.286Z,93.56
2022-12-04T23:27:03.958Z,93.59
2022-12-04T23:32:20.636Z,93.31
2022-12-04T23:34:48.971Z,93.63
2022-12-04T23:37:17.366Z,93.68
2022-12-04T23:39:45.729Z,93.97
2022-12-04T23:42:14.044Z,94.09
2022-12-04T23:44:42.357Z,94.16
2022-12-04T23:47:10.748Z,94.16
2022-12-04T23:49:39.088Z,93.85
2022-12-04T23:52:07.406Z,93.32
2022-12-04T23:54:37.042Z,92.10
2022-12-04T23:57:05.466Z,91.08
2022-12-04T23:59:33.880Z,91.37
